createdAt,value
2022-08-25T00:01:57.970Z,571.15
2022-08-25T00:04:26.090Z,574.88
2022-08-25T00:06:59.427Z,576.30
2022-08-25T00:09:29.424Z,571.10
2022-08-25T00:11:56.276Z,563.70
2022-08-25T00:14:36.941Z,545.70
2022-08-25T00:17:05.797Z,576.00
2022-08-25T00:19:35.288Z,582.70
2022-08-25T00:22:03.072Z,572.58
2022-08-25T00:24:30.500Z,562.35
2022-08-25T00:26:59.289Z,573.95
2022-08-25T00:29:26.985Z,560.28
2022-08-25T00:31:54.962Z,582.78
2022-08-25T00:34:25.575Z,566.95
2022-08-25T00:36:53.042Z,545.75
2022-08-25T00:39:22.427Z,551.75
2022-08-25T00:41:51.446Z,555.80
2022-08-25T00:44:19.254Z,540.40
2022-08-25T00:46:52.509Z,573.80
2022-08-25T00:49:31.915Z,588.70
2022-08-25T00:52:07.723Z,550.60
2022-08-25T00:54:39.506Z,579.30
2022-08-25T00:57:08.945Z,548.80
2022-08-25T00:59:36.548Z,593.30
2022-08-25T01:02:05.795Z,569.58
2022-08-25T01:04:35.241Z,609.33
2022-08-25T01:07:02.764Z,579.90
2022-08-25T01:09:32.453Z,558.10
2022-08-25T01:12:00.456Z,539.85
2022-08-25T01:14:31.453Z,548.60
2022-08-25T01:16:59.325Z,565.38
2022-08-25T01:19:28.797Z,556.42
2022-08-25T01:21:55.887Z,586.50
2022-08-25T01:24:43.450Z,587.92
2022-08-25T01:27:11.221Z,581.58
2022-08-25T01:29:38.622Z,581.13
2022-08-25T01:32:10.883Z,569.95
2022-08-25T01:34:41.105Z,566.35
2022-08-25T01:37:08.911Z,561.33
2022-08-25T01:39:40.513Z,593.75
2022-08-25T01:42:08.937Z,573.25
2022-08-25T01:44:39.137Z,571.70
2022-08-25T01:47:07.188Z,576.42
2022-08-25T01:49:34.519Z,552.40
2022-08-25T01:52:24.635Z,613.15
2022-08-25T01:54:52.167Z,546.85
2022-08-25T01:57:18.906Z,604.75
2022-08-25T01:59:46.294Z,585.10
2022-08-25T02:02:13.236Z,578.92
2022-08-25T02:08:58.518Z,595.33
2022-08-25T02:11:26.120Z,591.08
2022-08-25T02:13:53.040Z,622.75
2022-08-25T02:16:31.635Z,627.80
2022-08-25T02:18:59.311Z,606.22
2022-08-25T02:21:27.137Z,595.92
2022-08-25T02:23:54.210Z,598.45
2022-08-25T02:26:21.074Z,568.30
2022-08-25T02:28:49.157Z,578.92
2022-08-25T02:31:17.771Z,563.47
2022-08-25T02:33:44.737Z,556.58
2022-08-25T02:36:11.921Z,616.38
2022-08-25T02:38:39.270Z,589.80
2022-08-25T02:41:15.438Z,606.90
2022-08-25T02:43:44.089Z,584.25
2022-08-25T02:46:12.427Z,576.83
2022-08-25T02:48:39.995Z,611.40
2022-08-25T02:51:10.053Z,580.40
2022-08-25T02:53:40.446Z,590.25
2022-08-25T02:56:09.621Z,591.67
2022-08-25T02:58:37.797Z,587.03
2022-08-25T03:01:06.745Z,576.33
2022-08-25T03:03:38.768Z,602.92
2022-08-25T03:06:10.645Z,576.10
2022-08-25T03:08:37.958Z,603.92
2022-08-25T03:11:05.825Z,620.30
2022-08-25T03:13:33.241Z,641.78
2022-08-25T03:16:01.036Z,567.10
2022-08-25T03:18:30.195Z,622.22
2022-08-25T03:20:58.344Z,579.25
2022-08-25T03:23:25.530Z,610.03
2022-08-25T03:26:13.354Z,607.80
2022-08-25T03:28:41.657Z,607.53
2022-08-25T03:31:09.609Z,619.72
2022-08-25T03:33:38.270Z,595.85
2022-08-25T03:36:06.717Z,615.45
2022-08-25T03:38:33.973Z,604.67
2022-08-25T03:41:02.098Z,608.90
2022-08-25T03:43:28.990Z,608.92
2022-08-25T03:45:55.726Z,618.20
2022-08-25T03:48:22.677Z,604.67
2022-08-25T03:50:52.198Z,638.20
2022-08-25T03:53:20.204Z,592.60
2022-08-25T03:55:47.710Z,607.72
2022-08-25T03:58:15.129Z,624.13
2022-08-25T04:00:42.201Z,606.67
2022-08-25T04:03:09.317Z,605.42
2022-08-25T04:05:36.144Z,609.65
2022-08-25T04:08:03.423Z,610.72
2022-08-25T04:10:31.449Z,623.47
2022-08-25T04:12:58.239Z,587.00
2022-08-25T04:15:30.112Z,608.90
2022-08-25T04:17:58.923Z,622.78
2022-08-25T04:20:26.286Z,591.50
2022-08-25T04:22:52.993Z,628.70
2022-08-25T04:25:20.150Z,598.40
2022-08-25T04:27:46.951Z,619.80
2022-08-25T04:30:14.620Z,621.10
2022-08-25T04:32:41.465Z,601.85
2022-08-25T04:35:09.108Z,607.63
2022-08-25T04:37:35.943Z,597.40
2022-08-25T04:40:03.160Z,623.08
2022-08-25T04:42:30.032Z,632.88
2022-08-25T04:44:56.833Z,595.70
2022-08-25T04:47:23.857Z,609.92
2022-08-25T04:49:50.845Z,608.30
2022-08-25T04:52:17.732Z,602.63
2022-08-25T04:54:44.959Z,620.78
2022-08-25T04:57:11.797Z,568.70
2022-08-25T04:59:38.812Z,584.38
2022-08-25T05:02:06.650Z,606.72
2022-08-25T05:04:35.621Z,586.00
2022-08-25T05:07:03.324Z,575.03
2022-08-25T05:09:32.495Z,594.85
2022-08-25T05:12:00.779Z,602.25
2022-08-25T05:14:27.517Z,570.78
2022-08-25T05:16:58.341Z,574.97
2022-08-25T05:19:26.381Z,600.00
2022-08-25T05:21:53.787Z,559.05
2022-08-25T05:24:22.085Z,558.22
2022-08-25T05:26:49.333Z,548.00
2022-08-25T05:29:16.437Z,569.42
2022-08-25T05:31:49.564Z,554.67
2022-08-25T05:34:18.820Z,547.15
2022-08-25T05:36:46.641Z,530.15
2022-08-25T05:39:13.489Z,543.05
2022-08-25T05:41:40.702Z,513.20
2022-08-25T05:44:08.080Z,562.80
2022-08-25T05:46:34.985Z,507.17
2022-08-25T05:49:01.956Z,526.00
2022-08-25T05:51:29.025Z,518.88
2022-08-25T05:53:55.842Z,514.15
2022-08-25T05:56:22.744Z,503.63
2022-08-25T05:58:50.343Z,505.30
2022-08-25T06:01:45.401Z,510.73
2022-08-25T06:04:13.373Z,529.28
2022-08-25T06:06:40.403Z,514.00
2022-08-25T06:09:09.429Z,515.45
2022-08-25T06:11:39.964Z,530.03
2022-08-25T06:14:09.275Z,497.67
2022-08-25T06:16:36.261Z,532.80
2022-08-25T06:19:03.467Z,543.88
2022-08-25T06:21:30.554Z,531.60
2022-08-25T06:23:57.353Z,557.25
2022-08-25T06:26:24.103Z,551.17
2022-08-25T06:28:52.300Z,543.63
2022-08-25T06:31:20.740Z,519.30
2022-08-25T06:33:48.069Z,501.27
2022-08-25T06:36:15.612Z,500.35
2022-08-25T06:38:42.457Z,469.08
2022-08-25T06:41:10.839Z,465.23
2022-08-25T06:43:37.673Z,470.00
2022-08-25T06:46:13.128Z,448.10
2022-08-25T06:48:40.615Z,439.05
2022-08-25T06:51:08.762Z,431.33
2022-08-25T06:56:07.429Z,410.02
2022-08-25T06:58:34.470Z,418.42
2022-08-25T07:01:32.051Z,376.02
2022-08-25T07:04:00.670Z,400.70
2022-08-25T07:06:29.336Z,387.63
2022-08-25T07:08:56.099Z,407.13
2022-08-25T07:11:22.935Z,401.88
2022-08-25T07:13:51.023Z,416.35
2022-08-25T07:16:20.343Z,407.30
2022-08-25T07:18:48.900Z,385.08
2022-08-25T07:21:18.763Z,382.00
2022-08-25T07:23:47.484Z,382.60
2022-08-25T07:26:37.241Z,377.95
2022-08-25T07:29:12.291Z,396.55
2022-08-25T07:31:39.515Z,383.02
2022-08-25T07:34:26.180Z,383.75
2022-08-25T07:36:54.638Z,376.30
2022-08-25T07:39:23.049Z,352.80
2022-08-25T07:41:52.207Z,355.48
2022-08-25T07:44:20.832Z,315.30
2022-08-25T07:46:48.351Z,319.17
2022-08-25T07:49:17.917Z,310.05
2022-08-25T07:52:04.452Z,299.52
2022-08-25T07:54:35.217Z,296.42
2022-08-25T07:57:04.459Z,276.27
2022-08-25T07:59:39.329Z,282.63
2022-08-25T08:02:18.260Z,296.00
2022-08-25T08:04:49.847Z,289.83
2022-08-25T08:07:23.779Z,286.50
2022-08-25T08:10:36.986Z,325.38
2022-08-25T08:12:54.311Z,364.08
2022-08-25T08:15:21.333Z,377.45
2022-08-25T08:17:49.516Z,377.38
2022-08-25T08:20:17.835Z,420.80
2022-08-25T08:25:21.426Z,395.10
2022-08-25T08:27:51.448Z,400.73
2022-08-25T08:30:25.956Z,401.83
2022-08-25T08:33:09.160Z,408.60
2022-08-25T08:35:37.039Z,433.90
2022-08-25T08:38:05.454Z,419.52
2022-08-25T08:41:07.910Z,432.70
2022-08-25T08:43:35.495Z,477.35
2022-08-25T08:46:04.068Z,430.77
2022-08-25T08:48:46.829Z,471.23
2022-08-25T08:51:23.095Z,481.30
2022-08-25T08:53:59.084Z,493.88
2022-08-25T08:56:34.358Z,486.77
2022-08-25T08:59:38.428Z,500.60
2022-08-25T09:02:13.839Z,482.10
2022-08-25T09:05:04.241Z,476.77
2022-08-25T09:07:36.793Z,471.25
2022-08-25T09:10:10.439Z,456.73
2022-08-25T09:12:48.022Z,448.02
2022-08-25T09:15:54.749Z,427.70
2022-08-25T09:18:50.981Z,420.95
2022-08-25T09:21:36.366Z,376.13
2022-08-25T09:24:26.241Z,397.35
2022-08-25T09:27:18.597Z,400.33
2022-08-25T09:32:31.542Z,393.88
2022-08-25T09:35:01.271Z,396.33
2022-08-25T09:37:28.394Z,381.65
2022-08-25T09:39:55.317Z,397.88
2022-08-25T09:42:49.901Z,399.38
2022-08-25T09:45:36.565Z,404.88
2022-08-25T09:48:20.712Z,414.65
2022-08-25T09:50:55.193Z,432.90
2022-08-25T09:53:22.812Z,419.27
2022-08-25T09:56:04.611Z,439.98
2022-08-25T09:58:32.134Z,462.17
2022-08-25T10:01:18.885Z,446.17
2022-08-25T10:04:01.471Z,463.30
2022-08-25T10:06:34.218Z,434.20
2022-08-25T10:09:07.004Z,423.45
2022-08-25T10:11:46.961Z,435.05
2022-08-25T10:14:25.931Z,426.95
2022-08-25T10:16:53.391Z,416.52
2022-08-25T10:19:27.260Z,395.27
2022-08-25T10:22:06.997Z,382.52
2022-08-25T10:24:36.157Z,402.10
2022-08-25T10:27:12.584Z,384.30
2022-08-25T10:30:11.258Z,374.85
2022-08-25T10:32:51.850Z,343.10
2022-08-25T10:35:37.398Z,386.83
2022-08-25T10:38:33.454Z,361.38
2022-08-25T10:41:44.046Z,375.92
2022-08-25T10:44:37.227Z,414.38
2022-08-25T10:47:34.743Z,402.98
2022-08-25T10:50:16.489Z,416.20
2022-08-25T10:53:05.535Z,424.85
2022-08-25T10:56:07.268Z,404.70
2022-08-25T10:58:57.734Z,417.55
2022-08-25T11:01:33.923Z,420.02
2022-08-25T11:04:12.942Z,435.25
2022-08-25T11:07:02.865Z,404.55
2022-08-25T11:09:39.312Z,376.63
2022-08-25T11:12:31.925Z,363.67
2022-08-25T11:15:20.498Z,382.83
2022-08-25T11:18:14.494Z,355.58
2022-08-25T11:21:08.176Z,346.02
2022-08-25T11:26:14.980Z,342.20
2022-08-25T11:29:05.173Z,330.05
2022-08-25T11:31:42.269Z,337.77
2022-08-25T11:34:14.419Z,362.75
2022-08-25T11:36:49.229Z,325.45
2022-08-25T11:40:00.203Z,328.95
2022-08-25T11:42:45.494Z,340.30
2022-08-25T11:45:42.194Z,330.35
2022-08-25T11:48:38.054Z,318.80
2022-08-25T11:51:30.906Z,304.73
2022-08-25T11:54:16.648Z,330.65
2022-08-25T11:56:50.542Z,307.15
2022-08-25T11:59:52.154Z,269.67
2022-08-25T12:02:41.384Z,288.08
2022-08-25T12:06:10.747Z,278.58
2022-08-25T12:09:00.626Z,278.38
2022-08-25T12:11:43.591Z,252.45
2022-08-25T12:14:21.972Z,231.32
2022-08-25T12:16:51.896Z,219.27
2022-08-25T12:19:38.106Z,203.55
2022-08-25T12:22:04.931Z,225.85
2022-08-25T12:24:52.089Z,265.70
2022-08-25T12:27:36.328Z,268.90
2022-08-25T12:30:23.983Z,273.73
2022-08-25T12:33:31.480Z,286.08
2022-08-25T12:36:01.647Z,287.65
2022-08-25T12:38:42.538Z,350.17
2022-08-25T12:41:19.097Z,351.83
2022-08-25T12:43:48.468Z,330.50
2022-08-25T12:46:21.823Z,351.95
2022-08-25T12:49:11.336Z,350.67
2022-08-25T12:51:53.675Z,335.30
2022-08-25T12:54:36.549Z,323.40
2022-08-25T12:57:25.132Z,348.77
2022-08-25T12:59:59.908Z,380.38
2022-08-25T13:02:56.394Z,340.23
2022-08-25T13:05:29.433Z,349.00
2022-08-25T13:08:36.977Z,403.05
2022-08-25T13:11:20.615Z,356.45
2022-08-25T13:14:14.225Z,402.48
2022-08-25T13:19:21.152Z,398.70
2022-08-25T13:21:49.171Z,388.55
2022-08-25T13:24:21.925Z,379.27
2022-08-25T13:26:53.848Z,382.73
2022-08-25T13:29:26.514Z,349.85
2022-08-25T13:34:34.776Z,326.20
2022-08-25T13:37:30.181Z,315.70
2022-08-25T13:40:17.944Z,292.98
2022-08-25T13:42:55.615Z,305.73
2022-08-25T13:45:26.669Z,296.63
2022-08-25T13:47:55.816Z,307.77
2022-08-25T13:50:26.350Z,303.30
2022-08-25T13:52:56.871Z,329.45
2022-08-25T13:55:27.425Z,322.80
2022-08-25T13:57:56.730Z,313.98
2022-08-25T14:00:34.882Z,363.75
2022-08-25T14:03:08.747Z,341.38
2022-08-25T14:05:42.790Z,356.85
2022-08-25T14:08:32.389Z,349.60
2022-08-25T14:11:15.325Z,363.38
2022-08-25T14:13:45.600Z,342.88
2022-08-25T14:16:21.864Z,344.48
2022-08-25T14:18:58.891Z,347.88
2022-08-25T14:21:29.291Z,337.75
2022-08-25T14:23:57.235Z,347.45
2022-08-25T14:26:24.336Z,388.95
2022-08-25T14:28:53.703Z,399.77
2022-08-25T14:31:25.354Z,383.80
2022-08-25T14:33:56.686Z,383.30
2022-08-25T14:36:23.602Z,389.45
2022-08-25T14:38:54.797Z,398.88
2022-08-25T14:41:23.804Z,387.40
2022-08-25T14:43:50.651Z,386.15
2022-08-25T14:46:21.420Z,346.33
2022-08-25T14:48:54.568Z,370.10
2022-08-25T14:51:23.793Z,338.25
2022-08-25T14:53:53.854Z,342.83
2022-08-25T14:56:20.606Z,340.27
2022-08-25T14:58:51.582Z,320.23
2022-08-25T15:01:29.180Z,353.45
2022-08-25T15:04:13.128Z,345.38
2022-08-25T15:06:43.619Z,337.00
2022-08-25T15:09:13.046Z,383.48
2022-08-25T15:11:43.952Z,384.58
2022-08-25T15:14:12.389Z,408.50
2022-08-25T15:16:43.467Z,420.20
2022-08-25T15:19:14.572Z,398.67
2022-08-25T15:21:44.748Z,400.98
2022-08-25T15:24:17.343Z,423.27
2022-08-25T15:29:23.996Z,424.90
2022-08-25T15:31:51.027Z,434.77
2022-08-25T15:34:18.395Z,410.60
2022-08-25T15:36:45.660Z,430.00
2022-08-25T15:39:12.659Z,435.33
2022-08-25T15:41:39.758Z,425.02
2022-08-25T15:44:12.682Z,420.90
2022-08-25T15:46:41.605Z,432.73
2022-08-25T15:49:11.956Z,438.33
2022-08-25T15:51:39.429Z,419.95
2022-08-25T15:54:06.223Z,430.23
2022-08-25T15:56:32.993Z,458.55
2022-08-25T15:59:03.857Z,408.40
2022-08-25T16:01:35.544Z,439.60
2022-08-25T16:04:03.765Z,434.17
2022-08-25T16:06:32.060Z,454.42
2022-08-25T16:08:58.980Z,434.33
2022-08-25T16:11:28.720Z,427.90
2022-08-25T16:13:57.616Z,451.30
2022-08-25T16:16:26.913Z,444.73
2022-08-25T16:18:54.198Z,451.17
2022-08-25T16:21:29.158Z,459.55
2022-08-25T16:24:00.341Z,432.73
2022-08-25T16:26:30.567Z,502.23
2022-08-25T16:28:58.077Z,473.95
2022-08-25T16:31:26.287Z,486.83
2022-08-25T16:33:56.110Z,471.58
2022-08-25T16:36:27.097Z,465.92
2022-08-25T16:38:54.911Z,481.60
2022-08-25T16:41:26.033Z,493.10
2022-08-25T16:43:53.497Z,494.02
2022-08-25T16:46:21.531Z,472.38
2022-08-25T16:48:50.683Z,467.48
2022-08-25T16:51:22.643Z,446.95
2022-08-25T16:54:22.010Z,495.27
2022-08-25T16:56:54.856Z,467.90
2022-08-25T16:59:23.598Z,491.23
2022-08-25T17:01:51.243Z,477.08
2022-08-25T17:04:18.271Z,517.03
2022-08-25T17:06:49.322Z,458.88
2022-08-25T17:09:22.771Z,466.23
2022-08-25T17:11:54.145Z,487.75
2022-08-25T17:14:21.547Z,478.30
2022-08-25T17:16:48.648Z,491.75
2022-08-25T17:19:19.261Z,493.10
2022-08-25T17:21:46.726Z,472.00
2022-08-25T17:24:14.102Z,482.27
2022-08-25T17:26:42.256Z,460.13
2022-08-25T17:29:10.511Z,485.98
2022-08-25T17:31:39.840Z,494.15
2022-08-25T17:34:09.465Z,510.25
2022-08-25T17:36:36.971Z,486.58
2022-08-25T17:39:04.927Z,492.25
2022-08-25T17:41:32.217Z,462.73
2022-08-25T17:43:59.403Z,497.73
2022-08-25T17:46:27.192Z,500.42
2022-08-25T17:48:54.905Z,473.48
2022-08-25T17:51:22.915Z,463.65
2022-08-25T17:53:50.523Z,507.05
2022-08-25T17:56:19.197Z,473.48
2022-08-25T17:58:47.276Z,523.88
2022-08-25T18:01:22.328Z,470.35
2022-08-25T18:03:49.527Z,478.95
2022-08-25T18:06:17.177Z,513.33
2022-08-25T18:08:45.000Z,489.48
2022-08-25T18:11:19.953Z,489.63
2022-08-25T18:13:47.080Z,525.75
2022-08-25T18:16:14.225Z,491.88
2022-08-25T18:18:42.113Z,496.52
2022-08-25T18:21:15.154Z,510.35
2022-08-25T18:23:42.800Z,512.70
2022-08-25T18:26:12.901Z,522.65
2022-08-25T18:28:40.040Z,501.60
2022-08-25T18:31:12.084Z,493.15
2022-08-25T18:33:42.111Z,545.72
2022-08-25T18:36:09.728Z,551.85
2022-08-25T18:38:58.108Z,526.20
2022-08-25T18:41:26.518Z,503.85
2022-08-25T18:43:53.710Z,508.10
2022-08-25T18:46:22.580Z,508.52
2022-08-25T18:48:52.913Z,502.10
2022-08-25T18:51:23.148Z,499.92
2022-08-25T18:53:51.243Z,507.60
2022-08-25T18:56:22.409Z,497.08
2022-08-25T18:58:49.399Z,495.50
2022-08-25T19:01:17.453Z,490.83
2022-08-25T19:03:45.338Z,506.92
2022-08-25T19:06:12.333Z,538.05
2022-08-25T19:08:42.217Z,512.67
2022-08-25T19:11:10.222Z,520.17
2022-08-25T19:13:37.646Z,512.03
2022-08-25T19:16:13.825Z,520.67
2022-08-25T19:18:45.119Z,498.50
2022-08-25T19:21:11.921Z,532.42
2022-08-25T19:23:39.008Z,531.22
2022-08-25T19:26:08.277Z,526.40
2022-08-25T19:28:41.488Z,518.60
2022-08-25T19:31:12.922Z,537.60
2022-08-25T19:33:43.889Z,511.60
2022-08-25T19:36:13.239Z,504.95
2022-08-25T19:38:40.757Z,506.13
2022-08-25T19:41:10.483Z,539.25
2022-08-25T19:43:50.527Z,538.25
2022-08-25T19:46:33.069Z,534.85
2022-08-25T19:49:08.487Z,552.45
2022-08-25T19:51:43.832Z,531.63
2022-08-25T19:54:13.489Z,504.40
2022-08-25T19:56:43.967Z,532.40
2022-08-25T19:59:34.382Z,502.98
2022-08-25T20:02:17.955Z,536.40
2022-08-25T20:04:50.426Z,562.67
2022-08-25T20:07:23.712Z,506.17
2022-08-25T20:12:23.732Z,514.55
2022-08-25T20:14:52.141Z,528.22
2022-08-25T20:17:23.798Z,532.45
2022-08-25T20:19:57.045Z,531.90
2022-08-25T20:22:27.140Z,499.77
2022-08-25T20:24:59.441Z,536.22
2022-08-25T20:27:38.492Z,542.33
2022-08-25T20:30:10.033Z,492.40
2022-08-25T20:32:37.324Z,532.33
2022-08-25T20:35:06.659Z,552.13
2022-08-25T20:37:36.463Z,510.45
2022-08-25T20:40:04.835Z,512.45
2022-08-25T20:42:31.831Z,534.42
2022-08-25T20:44:59.086Z,498.23
2022-08-25T20:47:26.164Z,543.05
2022-08-25T20:49:53.514Z,513.97
2022-08-25T20:52:20.864Z,548.30
2022-08-25T20:54:50.322Z,518.83
2022-08-25T20:57:25.724Z,536.40
2022-08-25T20:59:54.291Z,527.88
2022-08-25T21:02:21.872Z,548.13
2022-08-25T21:04:50.414Z,517.03
2022-08-25T21:07:18.662Z,562.15
2022-08-25T21:09:46.263Z,528.63
2022-08-25T21:12:13.386Z,522.53
2022-08-25T21:14:42.197Z,525.40
2022-08-25T21:17:12.816Z,532.42
2022-08-25T21:19:40.241Z,528.03
2022-08-25T21:22:09.539Z,517.85
2022-08-25T21:24:37.642Z,539.40
2022-08-25T21:27:04.707Z,505.00
2022-08-25T21:29:32.871Z,534.83
2022-08-25T21:32:00.197Z,529.30
2022-08-25T21:34:29.114Z,546.08
2022-08-25T21:36:57.721Z,521.92
2022-08-25T21:39:29.675Z,531.78
2022-08-25T21:42:00.493Z,537.63
2022-08-25T21:44:28.721Z,529.80
2022-08-25T21:46:56.491Z,541.13
2022-08-25T21:49:24.996Z,503.30
2022-08-25T21:52:00.409Z,499.00
2022-08-25T21:54:29.193Z,526.70
2022-08-25T21:57:06.140Z,529.40
2022-08-25T21:59:40.248Z,507.55
2022-08-25T22:02:09.328Z,512.28
2022-08-25T22:04:38.833Z,520.92
2022-08-25T22:07:07.566Z,522.28
2022-08-25T22:09:35.542Z,536.30
2022-08-25T22:12:03.159Z,509.27
2022-08-25T22:14:30.190Z,559.25
2022-08-25T22:16:57.145Z,542.55
2022-08-25T22:19:24.831Z,540.42
2022-08-25T22:21:52.997Z,569.80
2022-08-25T22:24:20.533Z,559.55
2022-08-25T22:26:48.602Z,524.03
2022-08-25T22:29:25.519Z,532.95
2022-08-25T22:31:59.991Z,535.67
2022-08-25T22:34:32.114Z,84.00
2022-08-25T22:37:01.043Z,7.10
2022-08-25T22:39:29.128Z,8.25
2022-08-25T22:41:55.895Z,7.60
2022-08-25T22:44:23.527Z,6.97
2022-08-25T22:46:50.626Z,7.05
2022-08-25T22:49:18.429Z,7.53
2022-08-25T22:51:47.020Z,7.90
2022-08-25T22:54:15.221Z,7.10
2022-08-25T22:56:43.438Z,8.45
2022-08-25T22:59:12.789Z,8.05
2022-08-25T23:01:41.065Z,7.90
2022-08-25T23:04:07.977Z,7.63
2022-08-25T23:06:35.231Z,8.02
2022-08-25T23:09:04.362Z,8.13
2022-08-25T23:11:31.140Z,8.30
2022-08-25T23:14:00.453Z,6.97
2022-08-25T23:16:28.252Z,7.72
2022-08-25T23:18:55.504Z,7.20
2022-08-25T23:21:42.425Z,7.03
2022-08-25T23:24:13.989Z,7.32
2022-08-25T23:26:56.647Z,7.53
2022-08-25T23:29:23.859Z,7.07
2022-08-25T23:31:52.205Z,7.28
2022-08-25T23:34:20.599Z,7.30
2022-08-25T23:36:48.180Z,7.82
2022-08-25T23:39:14.869Z,7.25
2022-08-25T23:41:41.836Z,7.28
2022-08-25T23:44:17.389Z,7.30
2022-08-25T23:46:45.296Z,7.57
2022-08-25T23:49:14.512Z,6.88
2022-08-25T23:51:45.885Z,7.00
2022-08-25T23:54:13.353Z,7.53
2022-08-25T23:56:44.506Z,7.00
2022-08-25T23:59:14.492Z,7.15
